Airport View

Enter AWOS ICAO identifier for current METAR.

ex. KFNL

KCXP 100235Z AUTO 28013G22KT 10SM CLR 26/01 A3005 RMK AO2

10 Jul 2020 02:47

Frequency: 119.925

Phone: 775-884-4708

Other Area AWOS: KMEV - KRNO - KTRK - KTVL

TAF KCXP 092339Z 1000/1024 27014G22KT P6SM SKC FM100300 27008KT P6SM SKC FM100700 VRB03KT P6SM FEW250 FM102100 27010G18KT P6SM SCT250